createdAt,value
2018-02-21T00:00:19.740Z,2.59
2018-02-21T00:02:52.276Z,2.56
2018-02-21T00:05:24.891Z,2.50
2018-02-21T00:07:57.398Z,2.49
2018-02-21T00:10:29.924Z,2.45
2018-02-21T00:13:03.006Z,2.39
2018-02-21T00:15:35.546Z,2.38
2018-02-21T00:18:08.083Z,2.36
2018-02-21T00:20:40.613Z,2.29
2018-02-21T00:23:13.139Z,2.22
2018-02-21T00:25:46.740Z,2.19
2018-02-21T00:28:19.308Z,2.18
2018-02-21T00:30:51.825Z,2.15
2018-02-21T00:33:24.337Z,2.16
2018-02-21T00:35:56.861Z,2.13
2018-02-21T00:38:29.357Z,2.13
2018-02-21T00:41:02.282Z,2.09
2018-02-21T00:43:34.823Z,2.05
2018-02-21T00:46:07.365Z,2.05
2018-02-21T00:48:39.880Z,2.07
2018-02-21T00:51:13.029Z,1.95
2018-02-21T00:53:45.594Z,1.91
2018-02-21T00:56:18.120Z,1.86
2018-02-21T00:58:50.623Z,1.86
2018-02-21T01:01:23.549Z,1.79
2018-02-21T01:03:56.103Z,1.74
2018-02-21T01:06:28.637Z,1.71
2018-02-21T01:09:01.140Z,1.65
2018-02-21T01:11:33.658Z,1.60
2018-02-21T01:14:06.568Z,1.53
2018-02-21T01:16:39.499Z,1.52
2018-02-21T01:19:12.308Z,1.42
2018-02-21T01:21:44.887Z,1.36
2018-02-21T01:24:17.400Z,1.35
2018-02-21T01:26:49.937Z,1.35
2018-02-21T01:29:22.435Z,1.35
2018-02-21T01:31:55.063Z,1.30
2018-02-21T01:34:27.898Z,1.27
2018-02-21T01:37:00.434Z,1.26
2018-02-21T01:39:33.141Z,1.19
2018-02-21T01:42:05.673Z,1.16
2018-02-21T01:44:38.246Z,1.15
2018-02-21T01:47:10.802Z,1.11
2018-02-21T01:49:43.304Z,1.09
2018-02-21T01:52:15.913Z,1.11
2018-02-21T01:54:48.419Z,1.12
2018-02-21T01:57:20.952Z,1.13
2018-02-21T01:59:53.632Z,1.10
2018-02-21T02:02:26.165Z,1.10
2018-02-21T02:04:58.855Z,1.06
2018-02-21T02:07:31.546Z,1.05
2018-02-21T02:10:04.058Z,1.07
2018-02-21T02:12:36.603Z,1.05
2018-02-21T02:15:09.102Z,1.04
2018-02-21T02:17:41.673Z,0.99
2018-02-21T02:20:14.209Z,0.91
2018-02-21T02:22:46.768Z,0.87
2018-02-21T02:25:19.277Z,0.87
2018-02-21T02:27:51.804Z,0.87
2018-02-21T02:30:24.360Z,0.87
2018-02-21T02:32:56.859Z,0.80
2018-02-21T02:35:29.358Z,0.77
2018-02-21T02:38:01.897Z,0.75
2018-02-21T02:40:34.401Z,0.74
2018-02-21T02:43:06.961Z,0.67
2018-02-21T02:45:39.480Z,0.52
2018-02-21T02:48:12.038Z,0.62
2018-02-21T02:50:44.577Z,0.66
2018-02-21T02:53:17.124Z,0.68
2018-02-21T02:55:49.803Z,0.65
2018-02-21T02:58:22.375Z,0.64
2018-02-21T03:00:55.002Z,0.47
2018-02-21T03:03:27.535Z,0.44
2018-02-21T03:06:00.039Z,0.46
2018-02-21T03:08:32.570Z,0.45
2018-02-21T03:11:05.083Z,0.50
2018-02-21T03:13:37.612Z,0.52
2018-02-21T03:16:10.131Z,0.51
2018-02-21T03:18:42.656Z,0.50
2018-02-21T03:21:15.172Z,0.46
2018-02-21T03:23:47.699Z,0.43
2018-02-21T03:26:20.204Z,0.27
2018-02-21T03:28:52.729Z,0.25
2018-02-21T03:31:25.273Z,0.29
2018-02-21T03:33:57.781Z,0.31
2018-02-21T03:36:30.317Z,0.34
2018-02-21T03:39:02.828Z,0.24
2018-02-21T03:41:35.360Z,0.28
2018-02-21T03:44:07.865Z,0.31
2018-02-21T03:46:40.479Z,0.32
2018-02-21T03:49:13.007Z,0.32
2018-02-21T03:51:45.565Z,0.33
2018-02-21T03:54:18.085Z,0.32
2018-02-21T03:56:50.612Z,0.35
2018-02-21T03:59:23.112Z,0.32
2018-02-21T04:01:55.660Z,0.36
2018-02-21T04:04:28.165Z,0.42
2018-02-21T04:07:00.701Z,0.44
2018-02-21T04:09:33.641Z,0.45
2018-02-21T04:12:06.166Z,0.47
2018-02-21T04:14:38.674Z,0.49
2018-02-21T04:17:11.216Z,0.48
2018-02-21T04:19:43.729Z,0.47
2018-02-21T04:22:16.277Z,0.46
2018-02-21T04:24:48.783Z,0.46
2018-02-21T04:27:21.346Z,0.42
2018-02-21T04:29:53.862Z,0.44
2018-02-21T04:32:26.394Z,0.44
2018-02-21T04:34:58.916Z,0.42
2018-02-21T04:37:31.443Z,0.37
2018-02-21T04:40:03.950Z,0.38
2018-02-21T04:42:36.478Z,0.34
2018-02-21T04:45:08.991Z,0.29
2018-02-21T04:47:41.514Z,0.22
2018-02-21T04:50:14.015Z,0.25
2018-02-21T04:52:46.597Z,0.30
2018-02-21T04:55:24.850Z,0.33
2018-02-21T04:58:05.932Z,0.30
2018-02-21T05:00:38.471Z,0.29
2018-02-21T05:03:11.090Z,0.29
2018-02-21T05:05:43.588Z,0.32
2018-02-21T05:08:16.119Z,0.27
2018-02-21T05:10:48.625Z,0.05
2018-02-21T05:13:21.149Z,0.09
2018-02-21T05:15:53.659Z,0.17
2018-02-21T05:18:26.185Z,0.16
2018-02-21T05:20:58.693Z,0.15
2018-02-21T05:23:31.236Z,0.18
2018-02-21T05:26:03.754Z,0.18
2018-02-21T05:28:36.278Z,0.18
2018-02-21T05:31:09.601Z,0.17
2018-02-21T05:33:42.121Z,0.19
2018-02-21T05:36:14.623Z,0.21
2018-02-21T05:38:47.150Z,0.18
2018-02-21T05:41:19.661Z,0.15
2018-02-21T05:43:52.185Z,0.13
2018-02-21T05:46:24.680Z,0.14
2018-02-21T05:48:57.210Z,0.12
2018-02-21T05:51:29.707Z,0.06
2018-02-21T05:54:02.248Z,0.04
2018-02-21T05:56:34.754Z,0.00
2018-02-21T05:59:07.296Z,0.00
2018-02-21T06:01:39.807Z,0.00
2018-02-21T06:04:12.445Z,-0.03
2018-02-21T06:06:44.973Z,-0.05
2018-02-21T06:09:17.515Z,-0.06
2018-02-21T06:11:50.093Z,-0.02
2018-02-21T06:14:22.617Z,0.01
2018-02-21T06:16:55.112Z,-0.02
2018-02-21T06:19:27.642Z,-0.04
2018-02-21T06:22:00.160Z,-0.04
2018-02-21T06:24:32.700Z,-0.03
2018-02-21T06:27:05.199Z,-0.08
2018-02-21T06:29:37.748Z,-0.08
2018-02-21T06:32:10.276Z,-0.07
2018-02-21T06:34:42.810Z,-0.06
2018-02-21T06:37:15.320Z,-0.03
2018-02-21T06:39:47.858Z,0.01
2018-02-21T06:42:20.373Z,0.01
2018-02-21T06:44:52.910Z,-0.08
2018-02-21T06:47:25.460Z,-0.06
2018-02-21T06:49:57.977Z,-0.03
2018-02-21T06:52:30.526Z,-0.07
2018-02-21T06:55:03.038Z,-0.08
2018-02-21T06:57:35.594Z,0.02
2018-02-21T07:00:08.105Z,0.09
2018-02-21T07:02:40.637Z,0.18
2018-02-21T07:05:13.200Z,0.15
2018-02-21T07:07:45.725Z,0.14
2018-02-21T07:10:18.234Z,0.25
2018-02-21T07:12:50.777Z,0.40
2018-02-21T07:15:23.335Z,0.36
2018-02-21T07:17:55.838Z,0.48
2018-02-21T07:20:28.341Z,0.70
2018-02-21T07:23:00.860Z,0.89
2018-02-21T07:25:33.377Z,0.95
2018-02-21T07:28:05.904Z,1.07
2018-02-21T07:30:38.414Z,1.12
2018-02-21T07:33:10.939Z,0.87
2018-02-21T07:35:43.446Z,0.98
2018-02-21T07:38:15.981Z,1.15
2018-02-21T07:40:48.500Z,1.31
2018-02-21T07:43:21.026Z,1.41
2018-02-21T07:45:53.553Z,1.54
2018-02-21T07:48:26.087Z,1.78
2018-02-21T07:50:58.579Z,2.03
2018-02-21T07:53:31.104Z,2.26
2018-02-21T07:56:03.620Z,2.44
2018-02-21T07:58:36.156Z,2.61
2018-02-21T08:01:08.670Z,2.82
2018-02-21T08:03:41.199Z,2.97
2018-02-21T08:06:13.683Z,3.09
2018-02-21T08:08:46.221Z,3.24
2018-02-21T08:11:18.725Z,3.45
2018-02-21T08:13:51.238Z,3.61
2018-02-21T08:16:23.742Z,3.79
2018-02-21T08:18:56.264Z,3.77
2018-02-21T08:21:28.763Z,3.61
2018-02-21T08:24:01.319Z,3.45
2018-02-21T08:26:33.812Z,3.50
2018-02-21T08:29:06.327Z,3.57
2018-02-21T08:31:38.838Z,3.55
2018-02-21T08:34:11.368Z,3.56
2018-02-21T08:36:43.863Z,3.58
2018-02-21T08:39:16.374Z,3.66
2018-02-21T08:41:48.891Z,3.80
2018-02-21T08:44:21.410Z,3.97
2018-02-21T08:46:53.924Z,3.98
2018-02-21T08:49:26.478Z,3.89
2018-02-21T08:51:58.977Z,3.79
2018-02-21T08:54:31.498Z,3.67
2018-02-21T08:57:04.010Z,3.54
2018-02-21T08:59:36.537Z,3.45
2018-02-21T09:02:09.052Z,3.58
2018-02-21T09:04:41.593Z,3.80
2018-02-21T09:07:14.092Z,4.04
2018-02-21T09:09:46.618Z,4.20
2018-02-21T09:12:19.120Z,4.37
2018-02-21T09:14:51.632Z,4.56
2018-02-21T09:17:24.137Z,4.69
2018-02-21T09:19:56.652Z,4.64
2018-02-21T09:22:29.153Z,4.80
2018-02-21T09:25:01.684Z,4.96
2018-02-21T09:27:34.230Z,5.20
2018-02-21T09:30:06.770Z,5.31
2018-02-21T09:32:39.264Z,5.48
2018-02-21T09:35:11.797Z,5.59
2018-02-21T09:37:44.299Z,5.51
2018-02-21T09:40:16.827Z,5.44
2018-02-21T09:42:49.326Z,5.45
2018-02-21T09:45:21.847Z,5.21
2018-02-21T09:47:54.352Z,5.17
2018-02-21T09:50:26.874Z,5.02
2018-02-21T09:52:59.401Z,5.06
2018-02-21T09:55:31.935Z,5.26
2018-02-21T09:58:04.453Z,5.15
2018-02-21T10:00:36.981Z,5.01
2018-02-21T10:03:09.488Z,5.13
2018-02-21T10:05:42.004Z,5.22
2018-02-21T10:08:14.525Z,5.31
2018-02-21T10:10:47.060Z,5.33
2018-02-21T10:13:19.554Z,5.42
2018-02-21T10:15:52.088Z,5.63
2018-02-21T10:18:24.589Z,5.60
2018-02-21T10:20:57.110Z,5.66
2018-02-21T10:23:29.608Z,5.81
2018-02-21T10:26:02.119Z,5.89
2018-02-21T10:28:34.632Z,6.03
2018-02-21T10:31:07.164Z,6.23
2018-02-21T10:33:39.666Z,6.27
2018-02-21T10:36:12.203Z,6.42
2018-02-21T10:38:44.714Z,6.33
2018-02-21T10:41:17.232Z,6.39
2018-02-21T10:43:49.772Z,6.52
2018-02-21T10:46:22.277Z,6.60
2018-02-21T10:48:54.800Z,6.71
2018-02-21T10:51:27.312Z,6.77
2018-02-21T10:53:59.913Z,6.12
2018-02-21T10:56:32.398Z,6.21
2018-02-21T10:59:04.924Z,6.27
2018-02-21T11:01:37.442Z,6.37
2018-02-21T11:04:10.015Z,6.56
2018-02-21T11:06:42.521Z,6.65
2018-02-21T11:09:15.037Z,6.66
2018-02-21T11:11:47.547Z,6.60
2018-02-21T11:14:20.069Z,6.70
2018-02-21T11:16:52.591Z,6.87
2018-02-21T11:19:25.116Z,6.67
2018-02-21T11:21:57.621Z,6.50
2018-02-21T11:24:30.250Z,6.62
2018-02-21T11:27:02.750Z,6.87
2018-02-21T11:29:35.277Z,7.24
2018-02-21T11:32:07.836Z,6.61
2018-02-21T11:34:40.363Z,6.64
2018-02-21T11:37:12.873Z,7.01
2018-02-21T11:39:45.405Z,7.20
2018-02-21T11:42:17.896Z,7.33
2018-02-21T11:44:50.426Z,7.37
2018-02-21T11:47:22.931Z,6.97
2018-02-21T11:49:56.414Z,6.97
2018-02-21T11:52:28.927Z,7.04
2018-02-21T11:55:01.447Z,7.10
2018-02-21T11:57:33.950Z,6.96
2018-02-21T12:00:06.481Z,7.04
2018-02-21T12:02:38.988Z,6.86
2018-02-21T12:05:11.529Z,6.83
2018-02-21T12:07:44.053Z,6.77
2018-02-21T12:10:16.611Z,6.85
2018-02-21T12:12:49.126Z,6.99
2018-02-21T12:15:21.655Z,6.81
2018-02-21T12:17:54.148Z,6.73
2018-02-21T12:20:26.679Z,6.85
2018-02-21T12:22:59.182Z,7.01
2018-02-21T12:25:31.718Z,6.97
2018-02-21T12:28:04.220Z,6.90
2018-02-21T12:30:36.740Z,6.95
2018-02-21T12:33:09.251Z,7.21
2018-02-21T12:35:41.784Z,7.31
2018-02-21T12:38:14.288Z,7.67
2018-02-21T12:40:52.500Z,7.66
2018-02-21T12:43:25.092Z,7.61
2018-02-21T12:45:57.638Z,7.54
2018-02-21T12:48:30.153Z,7.17
2018-02-21T12:51:02.686Z,6.73
2018-02-21T12:53:35.227Z,6.93
2018-02-21T12:56:07.747Z,6.72
2018-02-21T12:58:40.256Z,6.56
2018-02-21T13:01:12.791Z,6.41
2018-02-21T13:03:45.313Z,6.59
2018-02-21T13:06:17.835Z,6.96
2018-02-21T13:08:50.340Z,6.52
2018-02-21T13:11:22.862Z,6.72
2018-02-21T13:13:55.381Z,6.73
2018-02-21T13:16:27.922Z,6.81
2018-02-21T13:19:00.467Z,7.16
2018-02-21T13:21:33.020Z,7.34
2018-02-21T13:24:05.519Z,7.55
2018-02-21T13:26:38.041Z,7.56
2018-02-21T13:29:10.575Z,7.64
2018-02-21T13:31:43.154Z,7.60
2018-02-21T13:34:15.671Z,6.77
2018-02-21T13:36:48.204Z,7.03
2018-02-21T13:39:20.721Z,7.28
2018-02-21T13:41:53.247Z,7.31
2018-02-21T13:44:25.766Z,7.27
2018-02-21T13:46:58.285Z,7.24
2018-02-21T13:49:30.803Z,7.07
2018-02-21T13:52:03.321Z,7.05
2018-02-21T13:54:35.829Z,7.22
2018-02-21T13:57:08.362Z,7.38
2018-02-21T13:59:40.864Z,7.59
2018-02-21T14:02:13.389Z,7.53
2018-02-21T14:04:45.890Z,7.51
2018-02-21T14:07:18.423Z,7.57
2018-02-21T14:09:50.987Z,7.47
2018-02-21T14:12:23.516Z,7.39
2018-02-21T14:14:56.020Z,7.34
2018-02-21T14:17:28.592Z,7.00
2018-02-21T14:20:01.064Z,7.16
2018-02-21T14:22:33.583Z,7.21
2018-02-21T14:25:06.082Z,7.24
2018-02-21T14:27:38.600Z,7.33
2018-02-21T14:30:11.109Z,7.12
2018-02-21T14:32:43.601Z,7.17
2018-02-21T14:35:16.137Z,7.14
2018-02-21T14:37:48.627Z,7.06
2018-02-21T14:40:21.146Z,7.25
2018-02-21T14:42:53.652Z,7.26
2018-02-21T14:45:26.178Z,7.33
2018-02-21T14:47:58.697Z,7.33
2018-02-21T14:50:31.220Z,7.29
2018-02-21T14:53:03.746Z,7.13
2018-02-21T14:55:36.261Z,7.08
2018-02-21T14:58:08.774Z,6.77
2018-02-21T15:00:41.305Z,6.86
2018-02-21T15:03:13.818Z,6.93
2018-02-21T15:05:46.336Z,7.04
2018-02-21T15:08:18.837Z,7.09
2018-02-21T15:10:51.371Z,7.13
2018-02-21T15:13:23.897Z,7.19
2018-02-21T15:15:56.431Z,7.22
2018-02-21T15:18:28.933Z,7.21
2018-02-21T15:21:01.461Z,7.21
2018-02-21T15:23:33.977Z,7.17
2018-02-21T15:26:06.517Z,7.09
2018-02-21T15:28:39.036Z,6.98
2018-02-21T15:31:11.570Z,6.89
2018-02-21T15:33:44.080Z,6.90
2018-02-21T15:36:16.608Z,6.90
2018-02-21T15:38:49.188Z,6.83
2018-02-21T15:41:21.738Z,6.90
2018-02-21T15:43:54.246Z,6.96
2018-02-21T15:46:26.801Z,6.83
2018-02-21T15:48:59.313Z,6.89
2018-02-21T15:51:31.853Z,6.91
2018-02-21T15:54:04.355Z,6.92
2018-02-21T15:56:36.881Z,6.89
2018-02-21T15:59:09.401Z,6.81
2018-02-21T16:01:41.954Z,6.81
2018-02-21T16:04:14.487Z,6.77
2018-02-21T16:06:47.013Z,6.81
2018-02-21T16:09:19.514Z,6.82
2018-02-21T16:11:52.041Z,6.86
2018-02-21T16:14:24.575Z,6.81
2018-02-21T16:16:57.103Z,6.79
2018-02-21T16:19:29.618Z,6.75
2018-02-21T16:22:02.170Z,6.73
2018-02-21T16:24:34.680Z,6.64
2018-02-21T16:27:07.230Z,6.60
2018-02-21T16:29:39.735Z,6.59
2018-02-21T16:34:51.155Z,6.50
2018-02-21T16:37:23.698Z,6.46
2018-02-21T16:39:56.217Z,6.42
2018-02-21T16:42:28.745Z,6.39
2018-02-21T16:45:01.252Z,6.36
2018-02-21T16:47:33.784Z,6.30
2018-02-21T16:50:06.299Z,6.28
2018-02-21T16:52:38.819Z,6.22
2018-02-21T16:55:11.329Z,6.16
2018-02-21T16:57:43.848Z,6.17
2018-02-21T17:00:16.369Z,6.19
2018-02-21T17:02:54.349Z,6.20
2018-02-21T17:05:26.874Z,6.20
2018-02-21T17:07:59.403Z,6.16
2018-02-21T17:10:31.903Z,6.18
2018-02-21T17:13:04.425Z,6.13
2018-02-21T17:15:36.928Z,6.11
2018-02-21T17:18:09.452Z,6.06
2018-02-21T17:20:41.981Z,6.03
2018-02-21T17:23:14.517Z,5.99
2018-02-21T17:25:47.022Z,6.00
2018-02-21T17:28:19.566Z,5.97
2018-02-21T17:30:52.064Z,5.95
2018-02-21T17:33:24.596Z,5.89
2018-02-21T17:35:57.092Z,5.86
2018-02-21T17:38:29.624Z,5.82
2018-02-21T17:44:08.885Z,5.84
2018-02-21T17:46:41.410Z,5.80
2018-02-21T17:49:13.916Z,5.73
2018-02-21T17:51:46.441Z,5.70
2018-02-21T17:54:18.942Z,5.69
2018-02-21T17:56:51.486Z,5.68
2018-02-21T17:59:23.982Z,5.64
2018-02-21T18:01:56.510Z,5.63
2018-02-21T18:04:29.006Z,5.63
2018-02-21T18:07:01.528Z,5.65
2018-02-21T18:09:34.048Z,5.65
2018-02-21T18:12:06.579Z,5.61
2018-02-21T18:14:39.092Z,5.60
2018-02-21T18:17:11.627Z,5.61
2018-02-21T18:19:44.129Z,5.62
2018-02-21T18:22:16.683Z,5.61
2018-02-21T18:24:49.238Z,5.57
2018-02-21T18:27:21.792Z,5.47
2018-02-21T18:29:54.335Z,5.39
2018-02-21T18:32:26.860Z,5.35
2018-02-21T18:34:59.366Z,5.24
2018-02-21T18:37:31.892Z,5.18
2018-02-21T18:40:04.447Z,5.10
2018-02-21T18:42:36.978Z,5.03
2018-02-21T18:45:09.475Z,4.92
2018-02-21T18:47:42.004Z,4.83
2018-02-21T18:50:18.337Z,4.77
2018-02-21T18:52:50.879Z,4.73
2018-02-21T18:55:23.391Z,4.62
2018-02-21T18:57:55.928Z,4.52
2018-02-21T19:00:28.441Z,4.41
2018-02-21T19:03:01.031Z,4.30
2018-02-21T19:05:33.540Z,4.20
2018-02-21T19:08:06.096Z,4.08
2018-02-21T19:10:38.606Z,4.00
2018-02-21T19:13:11.121Z,3.95
2018-02-21T19:15:43.624Z,3.89
2018-02-21T19:18:16.149Z,3.88
2018-02-21T19:20:48.651Z,3.84
2018-02-21T19:23:21.177Z,3.78
2018-02-21T19:25:53.687Z,3.71
2018-02-21T19:28:26.228Z,3.64
2018-02-21T19:30:58.736Z,3.58
2018-02-21T19:33:31.250Z,3.61
2018-02-21T19:36:03.756Z,3.60
2018-02-21T19:38:36.290Z,3.63
2018-02-21T19:41:08.824Z,3.64
2018-02-21T19:43:41.410Z,3.61
2018-02-21T19:46:13.916Z,3.58
2018-02-21T19:48:46.465Z,3.55
2018-02-21T19:51:18.975Z,3.50
2018-02-21T19:53:51.510Z,3.43
2018-02-21T19:56:24.012Z,3.35
2018-02-21T19:58:56.703Z,3.33
2018-02-21T20:01:29.183Z,3.32
2018-02-21T20:04:01.705Z,3.28
2018-02-21T20:06:34.274Z,3.28
2018-02-21T20:09:06.937Z,3.21
2018-02-21T20:11:39.454Z,3.22
2018-02-21T20:14:11.995Z,3.25
2018-02-21T20:16:44.576Z,3.17
2018-02-21T20:19:17.110Z,3.13
2018-02-21T20:21:49.712Z,3.11
2018-02-21T20:24:22.276Z,3.07
2018-02-21T20:26:54.821Z,3.05
2018-02-21T20:29:27.372Z,3.04
2018-02-21T20:31:59.952Z,3.03
2018-02-21T20:34:32.473Z,2.98
2018-02-21T20:37:05.037Z,2.98
2018-02-21T20:39:37.572Z,2.96
2018-02-21T20:42:10.096Z,2.92
2018-02-21T20:44:42.625Z,2.90
2018-02-21T20:47:15.151Z,2.87
2018-02-21T20:49:47.677Z,2.83
2018-02-21T20:52:20.222Z,2.87
2018-02-21T20:54:52.785Z,2.86
2018-02-21T20:57:25.287Z,2.82
2018-02-21T20:59:57.821Z,2.79
2018-02-21T21:02:30.336Z,2.78
2018-02-21T21:05:02.856Z,2.77
2018-02-21T21:07:35.404Z,2.74
2018-02-21T21:10:08.245Z,2.72
2018-02-21T21:12:40.812Z,2.69
2018-02-21T21:15:13.333Z,2.69
2018-02-21T21:17:45.841Z,2.65
2018-02-21T21:20:18.763Z,2.64
2018-02-21T21:22:51.305Z,2.59
2018-02-21T21:25:23.810Z,2.55
2018-02-21T21:27:56.323Z,2.49
2018-02-21T21:30:28.862Z,2.49
2018-02-21T21:33:01.436Z,2.46
2018-02-21T21:35:33.932Z,2.46
2018-02-21T21:38:06.468Z,2.45
2018-02-21T21:40:39.028Z,2.44
2018-02-21T21:43:11.573Z,2.43
2018-02-21T21:45:44.130Z,2.39
2018-02-21T21:48:16.652Z,2.34
2018-02-21T21:50:49.154Z,2.32
2018-02-21T21:53:21.689Z,2.34
2018-02-21T21:55:54.193Z,2.31
2018-02-21T21:58:26.848Z,2.29
2018-02-21T22:00:59.359Z,2.25
2018-02-21T22:03:31.911Z,2.23
2018-02-21T22:06:04.460Z,2.18
2018-02-21T22:08:36.992Z,2.13
2018-02-21T22:11:09.512Z,2.09
2018-02-21T22:13:42.025Z,2.04
2018-02-21T22:16:14.564Z,2.01
2018-02-21T22:18:47.093Z,2.00
2018-02-21T22:21:19.592Z,1.98
2018-02-21T22:23:52.146Z,1.98
2018-02-21T22:26:24.647Z,1.92
2018-02-21T22:28:57.189Z,1.89
2018-02-21T22:31:29.722Z,1.86
2018-02-21T22:34:02.262Z,1.88
2018-02-21T22:36:34.788Z,1.86
2018-02-21T22:39:07.306Z,1.87
2018-02-21T22:41:39.806Z,1.88
2018-02-21T22:44:12.329Z,1.89
2018-02-21T22:46:44.837Z,1.87
2018-02-21T22:49:17.367Z,1.83
2018-02-21T22:51:49.875Z,1.79
2018-02-21T22:54:22.411Z,1.75
2018-02-21T22:56:54.924Z,1.69
2018-02-21T22:59:27.451Z,1.64
2018-02-21T23:01:59.946Z,1.61
2018-02-21T23:04:32.488Z,1.61
2018-02-21T23:07:05.037Z,1.60
2018-02-21T23:09:37.564Z,1.61
2018-02-21T23:12:10.090Z,1.60
2018-02-21T23:14:42.614Z,1.64
2018-02-21T23:17:15.156Z,1.71
2018-02-21T23:19:47.677Z,1.70
2018-02-21T23:22:20.188Z,1.70
2018-02-21T23:24:52.744Z,1.66
2018-02-21T23:27:25.322Z,1.60
2018-02-21T23:29:57.867Z,1.57
2018-02-21T23:32:30.423Z,1.55
2018-02-21T23:35:02.954Z,1.54
2018-02-21T23:37:35.692Z,1.51
2018-02-21T23:40:08.255Z,1.46
2018-02-21T23:42:40.777Z,1.46
2018-02-21T23:45:13.308Z,1.44
2018-02-21T23:47:45.797Z,1.44
2018-02-21T23:50:18.354Z,1.50
2018-02-21T23:52:50.873Z,1.53
2018-02-21T23:55:23.415Z,1.52
2018-02-21T23:57:55.949Z,1.52
